sensor_id;sensor_type;location;lat;lon;timestamp;pressure;altitude;pressure_sealevel;temperature;humidity
67803;BME280;54601;51.378;-1.342;2022-08-19T00:01:26;99970.93;;;25.28;36.46
67803;BME280;54601;51.378;-1.342;2022-08-19T00:03:51;99967.42;;;25.45;36.14
67803;BME280;54601;51.378;-1.342;2022-08-19T00:06:17;99964.21;;;25.31;36.43
67803;BME280;54601;51.378;-1.342;2022-08-19T00:08:42;99965.87;;;25.42;36.19
67803;BME280;54601;51.378;-1.342;2022-08-19T00:11:07;99966.41;;;25.35;36.42
67803;BME280;54601;51.378;-1.342;2022-08-19T00:13:34;99963.45;;;25.87;36.34
67803;BME280;54601;51.378;-1.342;2022-08-19T00:15:59;99959.13;;;25.29;36.40
67803;BME280;54601;51.378;-1.342;2022-08-19T00:18:24;99959.17;;;25.41;36.19
67803;BME280;54601;51.378;-1.342;2022-08-19T00:20:50;99961.03;;;25.46;36.13
67803;BME280;54601;51.378;-1.342;2022-08-19T00:23:16;99962.52;;;25.37;36.22
67803;BME280;54601;51.378;-1.342;2022-08-19T00:25:41;99965.31;;;25.29;36.38
67803;BME280;54601;51.378;-1.342;2022-08-19T00:28:07;99969.27;;;25.25;36.42
67803;BME280;54601;51.378;-1.342;2022-08-19T00:30:32;99967.11;;;25.31;36.46
67803;BME280;54601;51.378;-1.342;2022-08-19T00:32:58;99968.92;;;25.19;36.59
67803;BME280;54601;51.378;-1.342;2022-08-19T00:35:24;99966.51;;;25.23;36.35
67803;BME280;54601;51.378;-1.342;2022-08-19T00:37:50;99966.31;;;25.16;36.57
67803;BME280;54601;51.378;-1.342;2022-08-19T00:40:16;99968.00;;;25.37;36.34
67803;BME280;54601;51.378;-1.342;2022-08-19T00:42:40;99963.67;;;25.27;36.38
67803;BME280;54601;51.378;-1.342;2022-08-19T00:45:12;99964.52;;;25.14;36.64
67803;BME280;54601;51.378;-1.342;2022-08-19T00:47:31;99964.16;;;25.21;36.50
67803;BME280;54601;51.378;-1.342;2022-08-19T00:49:58;99964.17;;;25.27;36.34
67803;BME280;54601;51.378;-1.342;2022-08-19T00:52:25;99965.65;;;25.41;36.45
67803;BME280;54601;51.378;-1.342;2022-08-19T00:54:48;99967.32;;;25.39;36.49
67803;BME280;54601;51.378;-1.342;2022-08-19T00:57:17;99966.03;;;25.43;36.40
67803;BME280;54601;51.378;-1.342;2022-08-19T00:59:41;99964.72;;;25.43;36.09
67803;BME280;54601;51.378;-1.342;2022-08-19T01:02:05;99963.24;;;25.22;36.40
67803;BME280;54601;51.378;-1.342;2022-08-19T01:04:30;99959.33;;;25.43;36.39
67803;BME280;54601;51.378;-1.342;2022-08-19T01:06:56;99957.19;;;25.23;36.34
67803;BME280;54601;51.378;-1.342;2022-08-19T01:09:22;99954.20;;;25.16;36.43
67803;BME280;54601;51.378;-1.342;2022-08-19T01:11:47;99951.08;;;25.13;36.61
67803;BME280;54601;51.378;-1.342;2022-08-19T01:14:13;99951.80;;;25.10;36.57
67803;BME280;54601;51.378;-1.342;2022-08-19T01:16:39;99947.21;;;25.06;36.74
67803;BME280;54601;51.378;-1.342;2022-08-19T01:19:10;99944.31;;;25.04;36.72
67803;BME280;54601;51.378;-1.342;2022-08-19T01:21:33;99944.27;;;25.06;36.56
67803;BME280;54601;51.378;-1.342;2022-08-19T01:23:55;99944.88;;;25.11;36.59
67803;BME280;54601;51.378;-1.342;2022-08-19T01:26:24;99948.31;;;25.06;36.62
67803;BME280;54601;51.378;-1.342;2022-08-19T01:28:48;99951.14;;;25.10;36.57
67803;BME280;54601;51.378;-1.342;2022-08-19T01:31:14;99953.60;;;25.05;36.59
67803;BME280;54601;51.378;-1.342;2022-08-19T01:33:37;99955.34;;;25.49;36.27
67803;BME280;54601;51.378;-1.342;2022-08-19T01:36:05;99954.79;;;25.13;36.51
67803;BME280;54601;51.378;-1.342;2022-08-19T01:38:28;99953.86;;;25.08;36.51
67803;BME280;54601;51.378;-1.342;2022-08-19T01:40:54;99953.52;;;25.30;36.62
67803;BME280;54601;51.378;-1.342;2022-08-19T01:43:20;99949.97;;;25.16;36.42
67803;BME280;54601;51.378;-1.342;2022-08-19T01:45:45;99952.65;;;25.06;36.55
67803;BME280;54601;51.378;-1.342;2022-08-19T01:48:11;99952.58;;;25.47;36.63
67803;BME280;54601;51.378;-1.342;2022-08-19T01:50:37;99953.79;;;25.12;36.50
67803;BME280;54601;51.378;-1.342;2022-08-19T01:53:04;99954.52;;;25.12;36.48
67803;BME280;54601;51.378;-1.342;2022-08-19T01:55:27;99950.45;;;25.22;36.68
67803;BME280;54601;51.378;-1.342;2022-08-19T01:57:56;99948.30;;;25.40;36.70
67803;BME280;54601;51.378;-1.342;2022-08-19T02:00:22;99944.98;;;25.52;36.57
67803;BME280;54601;51.378;-1.342;2022-08-19T02:02:44;99946.28;;;24.98;36.78
67803;BME280;54601;51.378;-1.342;2022-08-19T02:05:11;99949.36;;;24.98;36.65
67803;BME280;54601;51.378;-1.342;2022-08-19T02:07:36;99953.17;;;25.26;36.51
67803;BME280;54601;51.378;-1.342;2022-08-19T02:10:02;99953.27;;;25.12;36.75
67803;BME280;54601;51.378;-1.342;2022-08-19T02:12:26;99949.92;;;25.12;36.70
67803;BME280;54601;51.378;-1.342;2022-08-19T02:14:52;99954.26;;;25.16;36.68
67803;BME280;54601;51.378;-1.342;2022-08-19T02:17:17;99954.17;;;25.28;36.44
67803;BME280;54601;51.378;-1.342;2022-08-19T02:19:43;99958.03;;;25.44;36.53
67803;BME280;54601;51.378;-1.342;2022-08-19T02:22:09;99962.95;;;25.27;36.42
67803;BME280;54601;51.378;-1.342;2022-08-19T02:24:34;99963.63;;;25.27;36.42
67803;BME280;54601;51.378;-1.342;2022-08-19T02:27:00;99963.96;;;24.99;36.50
67803;BME280;54601;51.378;-1.342;2022-08-19T02:29:25;99964.11;;;25.18;36.48
67803;BME280;54601;51.378;-1.342;2022-08-19T02:31:51;99965.69;;;25.37;36.57
67803;BME280;54601;51.378;-1.342;2022-08-19T02:34:17;99965.15;;;25.37;36.54
67803;BME280;54601;51.378;-1.342;2022-08-19T02:36:42;99963.54;;;25.44;36.42
67803;BME280;54601;51.378;-1.342;2022-08-19T02:39:08;99969.18;;;24.93;36.53
67803;BME280;54601;51.378;-1.342;2022-08-19T02:41:34;99974.21;;;25.37;36.54
67803;BME280;54601;51.378;-1.342;2022-08-19T02:44:01;99973.66;;;25.01;36.43
67803;BME280;54601;51.378;-1.342;2022-08-19T02:46:27;99975.52;;;24.94;36.52
67803;BME280;54601;51.378;-1.342;2022-08-19T02:48:52;99976.65;;;25.14;36.55
67803;BME280;54601;51.378;-1.342;2022-08-19T02:51:17;99981.18;;;25.40;36.52
67803;BME280;54601;51.378;-1.342;2022-08-19T02:53:41;99981.96;;;25.39;36.51
67803;BME280;54601;51.378;-1.342;2022-08-19T02:56:07;99982.49;;;25.38;36.53
67803;BME280;54601;51.378;-1.342;2022-08-19T02:58:32;99982.25;;;25.35;36.58
67803;BME280;54601;51.378;-1.342;2022-08-19T03:00:58;99983.92;;;25.04;36.39
67803;BME280;54601;51.378;-1.342;2022-08-19T03:03:24;99981.40;;;25.45;36.48
67803;BME280;54601;51.378;-1.342;2022-08-19T03:05:49;99982.25;;;25.04;36.37
67803;BME280;54601;51.378;-1.342;2022-08-19T03:08:15;99985.76;;;25.14;36.21
67803;BME280;54601;51.378;-1.342;2022-08-19T03:10:43;99984.39;;;25.36;36.25
67803;BME280;54601;51.378;-1.342;2022-08-19T03:13:06;99978.61;;;25.02;36.41
67803;BME280;54601;51.378;-1.342;2022-08-19T03:15:32;99980.20;;;25.08;36.33
67803;BME280;54601;51.378;-1.342;2022-08-19T03:17:57;99979.86;;;25.00;36.41
67803;BME280;54601;51.378;-1.342;2022-08-19T03:20:23;99977.45;;;25.34;36.53
67803;BME280;54601;51.378;-1.342;2022-08-19T03:22:48;99979.31;;;25.10;36.59
67803;BME280;54601;51.378;-1.342;2022-08-19T03:25:14;99981.59;;;25.09;36.63
67803;BME280;54601;51.378;-1.342;2022-08-19T03:27:40;99983.41;;;24.83;36.66
67803;BME280;54601;51.378;-1.342;2022-08-19T03:30:06;99987.15;;;24.83;36.62
67803;BME280;54601;51.378;-1.342;2022-08-19T03:32:31;99986.32;;;25.25;36.67
67803;BME280;54601;51.378;-1.342;2022-08-19T03:34:56;99984.00;;;25.13;36.52
67803;BME280;54601;51.378;-1.342;2022-08-19T03:37:22;99983.80;;;24.82;36.67
67803;BME280;54601;51.378;-1.342;2022-08-19T03:39:48;99991.95;;;25.07;36.60
67803;BME280;54601;51.378;-1.342;2022-08-19T03:42:13;99993.47;;;25.07;36.56
67803;BME280;54601;51.378;-1.342;2022-08-19T03:44:39;99993.44;;;25.32;36.55
67803;BME280;54601;51.378;-1.342;2022-08-19T03:47:05;99992.29;;;25.30;36.58
67803;BME280;54601;51.378;-1.342;2022-08-19T03:49:32;99989.95;;;25.20;36.69
67803;BME280;54601;51.378;-1.342;2022-08-19T03:51:57;99990.90;;;24.99;36.61
67803;BME280;54601;51.378;-1.342;2022-08-19T03:54:23;99995.42;;;24.79;36.64
67803;BME280;54601;51.378;-1.342;2022-08-19T03:56:48;99997.19;;;25.19;36.65
67803;BME280;54601;51.378;-1.342;2022-08-19T03:59:16;99997.84;;;24.98;36.54
67803;BME280;54601;51.378;-1.342;2022-08-19T04:01:38;99999.86;;;25.14;36.62
67803;BME280;54601;51.378;-1.342;2022-08-19T04:04:04;99999.36;;;25.18;36.59
67803;BME280;54601;51.378;-1.342;2022-08-19T04:06:31;100000.29;;;25.22;36.49
67803;BME280;54601;51.378;-1.342;2022-08-19T04:08:57;99999.42;;;24.89;36.69
67803;BME280;54601;51.378;-1.342;2022-08-19T04:11:24;100002.39;;;25.23;36.50
67803;BME280;54601;51.378;-1.342;2022-08-19T04:13:46;100005.44;;;25.15;36.58
67803;BME280;54601;51.378;-1.342;2022-08-19T04:16:12;100006.41;;;24.72;36.51
67803;BME280;54601;51.378;-1.342;2022-08-19T04:18:39;100004.89;;;24.75;36.47
67803;BME280;54601;51.378;-1.342;2022-08-19T04:21:04;100003.35;;;24.75;36.48
67803;BME280;54601;51.378;-1.342;2022-08-19T04:23:29;100007.66;;;25.03;36.73
67803;BME280;54601;51.378;-1.342;2022-08-19T04:25:55;100009.14;;;24.62;36.60
67803;BME280;54601;51.378;-1.342;2022-08-19T04:28:21;100008.55;;;25.18;36.44
67803;BME280;54601;51.378;-1.342;2022-08-19T04:30:47;100014.72;;;25.15;36.52
67803;BME280;54601;51.378;-1.342;2022-08-19T04:33:13;100016.55;;;25.07;36.57
67803;BME280;54601;51.378;-1.342;2022-08-19T04:35:38;100015.90;;;25.06;36.58
67803;BME280;54601;51.378;-1.342;2022-08-19T04:38:02;100014.00;;;24.83;36.57
67803;BME280;54601;51.378;-1.342;2022-08-19T04:40:28;100018.55;;;25.14;36.40
67803;BME280;54601;51.378;-1.342;2022-08-19T04:42:54;100025.10;;;25.03;36.56
67803;BME280;54601;51.378;-1.342;2022-08-19T04:45:19;100024.79;;;25.12;36.41
67803;BME280;54601;51.378;-1.342;2022-08-19T04:47:45;100022.29;;;25.03;36.59
67803;BME280;54601;51.378;-1.342;2022-08-19T04:50:11;100023.58;;;25.08;36.51
67803;BME280;54601;51.378;-1.342;2022-08-19T04:52:36;100026.07;;;25.11;36.41
67803;BME280;54601;51.378;-1.342;2022-08-19T04:55:02;100022.79;;;24.80;36.49
67803;BME280;54601;51.378;-1.342;2022-08-19T04:57:27;100023.52;;;24.91;36.36
67803;BME280;54601;51.378;-1.342;2022-08-19T04:59:54;100022.58;;;24.85;36.43
67803;BME280;54601;51.378;-1.342;2022-08-19T05:02:18;100025.36;;;25.23;36.16
67803;BME280;54601;51.378;-1.342;2022-08-19T05:04:44;100026.42;;;25.03;36.11
67803;BME280;54601;51.378;-1.342;2022-08-19T05:07:10;100026.85;;;24.84;36.38
67803;BME280;54601;51.378;-1.342;2022-08-19T05:09:35;100031.93;;;24.89;36.28
67803;BME280;54601;51.378;-1.342;2022-08-19T05:12:01;100037.32;;;25.15;36.23
67803;BME280;54601;51.378;-1.342;2022-08-19T05:14:27;100036.49;;;25.14;36.21
67803;BME280;54601;51.378;-1.342;2022-08-19T05:16:52;100034.17;;;25.00;36.08
67803;BME280;54601;51.378;-1.342;2022-08-19T05:19:18;100034.84;;;25.28;35.99
67803;BME280;54601;51.378;-1.342;2022-08-19T05:21:44;100037.65;;;24.97;36.10
67803;BME280;54601;51.378;-1.342;2022-08-19T05:24:11;100037.99;;;25.10;36.24
67803;BME280;54601;51.378;-1.342;2022-08-19T05:26:35;100041.97;;;24.92;36.14
67803;BME280;54601;51.378;-1.342;2022-08-19T05:29:00;100044.24;;;25.11;36.22
67803;BME280;54601;51.378;-1.342;2022-08-19T05:31:26;100051.51;;;25.11;36.22
67803;BME280;54601;51.378;-1.342;2022-08-19T05:33:52;100057.24;;;25.07;36.23
67803;BME280;54601;51.378;-1.342;2022-08-19T05:36:17;100054.11;;;25.05;36.26
67803;BME280;54601;51.378;-1.342;2022-08-19T05:38:43;100055.84;;;25.09;36.15
67803;BME280;54601;51.378;-1.342;2022-08-19T05:41:10;100059.47;;;25.08;36.17
67803;BME280;54601;51.378;-1.342;2022-08-19T05:43:34;100059.50;;;25.01;35.94
67803;BME280;54601;51.378;-1.342;2022-08-19T05:46:00;100064.29;;;24.86;36.13
67803;BME280;54601;51.378;-1.342;2022-08-19T05:48:25;100065.13;;;24.83;36.11
67803;BME280;54601;51.378;-1.342;2022-08-19T05:50:51;100067.46;;;24.90;36.02
67803;BME280;54601;51.378;-1.342;2022-08-19T05:53:16;100071.29;;;25.15;35.98
67803;BME280;54601;51.378;-1.342;2022-08-19T05:55:42;100071.00;;;24.89;36.07
67803;BME280;54601;51.378;-1.342;2022-08-19T05:58:08;100075.52;;;24.79;36.15
67803;BME280;54601;51.378;-1.342;2022-08-19T06:00:33;100075.09;;;25.17;35.95
67803;BME280;54601;51.378;-1.342;2022-08-19T06:02:59;100079.26;;;24.58;36.10
67803;BME280;54601;51.378;-1.342;2022-08-19T06:05:25;100079.30;;;25.02;36.14
67803;BME280;54601;51.378;-1.342;2022-08-19T06:07:50;100083.91;;;24.94;36.25
67803;BME280;54601;51.378;-1.342;2022-08-19T06:10:16;100083.20;;;25.13;35.91
67803;BME280;54601;51.378;-1.342;2022-08-19T06:12:41;100078.75;;;25.41;35.89
67803;BME280;54601;51.378;-1.342;2022-08-19T06:15:09;100080.73;;;25.22;35.77
67803;BME280;54601;51.378;-1.342;2022-08-19T06:17:33;100079.53;;;24.94;35.89
67803;BME280;54601;51.378;-1.342;2022-08-19T06:19:59;100080.97;;;25.28;35.70
67803;BME280;54601;51.378;-1.342;2022-08-19T06:22:24;100080.86;;;25.22;35.82
67803;BME280;54601;51.378;-1.342;2022-08-19T06:24:49;100079.72;;;24.99;35.50
67803;BME280;54601;51.378;-1.342;2022-08-19T06:27:15;100082.35;;;24.87;35.65
67803;BME280;54601;51.378;-1.342;2022-08-19T06:29:41;100082.75;;;25.25;35.78
67803;BME280;54601;51.378;-1.342;2022-08-19T06:32:06;100083.82;;;25.25;35.68
67803;BME280;54601;51.378;-1.342;2022-08-19T06:34:34;100082.89;;;25.35;35.66
67803;BME280;54601;51.378;-1.342;2022-08-19T06:37:00;100085.46;;;24.68;35.84
67803;BME280;54601;51.378;-1.342;2022-08-19T06:39:26;100089.41;;;25.35;35.52
67803;BME280;54601;51.378;-1.342;2022-08-19T06:41:51;100090.87;;;24.87;35.55
67803;BME280;54601;51.378;-1.342;2022-08-19T06:44:15;100093.89;;;25.33;35.65
67803;BME280;54601;51.378;-1.342;2022-08-19T06:46:41;100093.41;;;25.45;35.49
67803;BME280;54601;51.378;-1.342;2022-08-19T06:49:06;100097.00;;;25.45;35.54
67803;BME280;54601;51.378;-1.342;2022-08-19T06:51:32;100097.27;;;25.49;35.40
67803;BME280;54601;51.378;-1.342;2022-08-19T06:53:58;100098.09;;;25.41;35.40
67803;BME280;54601;51.378;-1.342;2022-08-19T06:56:25;100101.10;;;25.26;35.27
67803;BME280;54601;51.378;-1.342;2022-08-19T06:58:48;100103.54;;;24.82;35.65
67803;BME280;54601;51.378;-1.342;2022-08-19T07:01:14;100109.82;;;25.17;35.69
67803;BME280;54601;51.378;-1.342;2022-08-19T07:03:39;100108.75;;;25.17;35.73
67803;BME280;54601;51.378;-1.342;2022-08-19T07:06:07;100111.75;;;25.32;35.48
67803;BME280;54601;51.378;-1.342;2022-08-19T07:08:31;100115.32;;;25.03;35.80
67803;BME280;54601;51.378;-1.342;2022-08-19T07:10:56;100113.25;;;24.99;35.65
67803;BME280;54601;51.378;-1.342;2022-08-19T07:13:22;100114.56;;;25.24;35.55
67803;BME280;54601;51.378;-1.342;2022-08-19T07:15:48;100112.46;;;24.87;35.71
67803;BME280;54601;51.378;-1.342;2022-08-19T07:18:13;100113.06;;;25.14;35.68
67803;BME280;54601;51.378;-1.342;2022-08-19T07:20:39;100107.64;;;25.01;35.81
67803;BME280;54601;51.378;-1.342;2022-08-19T07:23:05;100112.48;;;25.36;35.38
67803;BME280;54601;51.378;-1.342;2022-08-19T07:25:30;100112.99;;;25.16;35.50
67803;BME280;54601;51.378;-1.342;2022-08-19T07:27:56;100117.03;;;25.57;34.83
67803;BME280;54601;51.378;-1.342;2022-08-19T07:30:21;100113.72;;;25.24;35.27
67803;BME280;54601;51.378;-1.342;2022-08-19T07:32:47;100112.82;;;25.75;34.67
67803;BME280;54601;51.378;-1.342;2022-08-19T07:35:13;100112.73;;;25.61;34.95
67803;BME280;54601;51.378;-1.342;2022-08-19T07:37:38;100112.05;;;25.49;34.94
67803;BME280;54601;51.378;-1.342;2022-08-19T07:40:05;100111.48;;;25.80;34.67
67803;BME280;54601;51.378;-1.342;2022-08-19T07:42:29;100114.96;;;25.85;34.61
67803;BME280;54601;51.378;-1.342;2022-08-19T07:44:55;100118.24;;;25.66;34.63
67803;BME280;54601;51.378;-1.342;2022-08-19T07:47:21;100121.04;;;25.71;34.60
67803;BME280;54601;51.378;-1.342;2022-08-19T07:49:46;100120.35;;;25.98;34.52
67803;BME280;54601;51.378;-1.342;2022-08-19T07:52:12;100122.57;;;25.87;34.44
67803;BME280;54601;51.378;-1.342;2022-08-19T07:54:38;100122.64;;;25.85;34.32
67803;BME280;54601;51.378;-1.342;2022-08-19T07:57:04;100126.12;;;25.80;34.39
67803;BME280;54601;51.378;-1.342;2022-08-19T07:59:29;100130.96;;;24.55;34.14
67803;BME280;54601;51.378;-1.342;2022-08-19T08:01:55;100134.81;;;26.70;33.24
67803;BME280;54601;51.378;-1.342;2022-08-19T08:04:20;100130.68;;;26.41;33.58
67803;BME280;54601;51.378;-1.342;2022-08-19T08:06:45;100133.36;;;26.27;33.76
67803;BME280;54601;51.378;-1.342;2022-08-19T08:09:13;100132.85;;;26.25;33.70
67803;BME280;54601;51.378;-1.342;2022-08-19T08:11:37;100136.33;;;25.92;33.81
67803;BME280;54601;51.378;-1.342;2022-08-19T08:14:02;100138.14;;;26.13;33.90
67803;BME280;54601;51.378;-1.342;2022-08-19T08:16:28;100138.00;;;26.08;34.00
67803;BME280;54601;51.378;-1.342;2022-08-19T08:18:53;100142.75;;;26.08;33.92
67803;BME280;54601;51.378;-1.342;2022-08-19T08:21:19;100146.52;;;26.01;34.03
67803;BME280;54601;51.378;-1.342;2022-08-19T08:23:45;100147.32;;;25.81;34.01
67803;BME280;54601;51.378;-1.342;2022-08-19T08:26:10;100150.35;;;26.05;33.91
67803;BME280;54601;51.378;-1.342;2022-08-19T08:28:36;100150.76;;;26.08;34.06
67803;BME280;54601;51.378;-1.342;2022-08-19T08:31:02;100156.79;;;26.13;33.86
67803;BME280;54601;51.378;-1.342;2022-08-19T08:33:28;100158.84;;;26.26;33.98
67803;BME280;54601;51.378;-1.342;2022-08-19T08:35:53;100158.50;;;26.03;33.93
67803;BME280;54601;51.378;-1.342;2022-08-19T08:38:18;100155.46;;;26.05;33.79
67803;BME280;54601;51.378;-1.342;2022-08-19T08:40:46;100153.01;;;26.04;33.76
67803;BME280;54601;51.378;-1.342;2022-08-19T08:43:20;100159.72;;;26.04;33.74
67803;BME280;54601;51.378;-1.342;2022-08-19T08:45:41;100155.74;;;26.01;33.68
67803;BME280;54601;51.378;-1.342;2022-08-19T08:48:04;100159.36;;;26.05;33.54
67803;BME280;54601;51.378;-1.342;2022-08-19T08:50:31;100162.56;;;26.08;33.53
67803;BME280;54601;51.378;-1.342;2022-08-19T08:52:54;100165.02;;;26.09;33.45
67803;BME280;54601;51.378;-1.342;2022-08-19T08:55:20;100168.91;;;26.08;33.40
67803;BME280;54601;51.378;-1.342;2022-08-19T08:57:51;100171.30;;;26.08;33.30
67803;BME280;54601;51.378;-1.342;2022-08-19T09:00:11;100169.26;;;26.05;33.30
67803;BME280;54601;51.378;-1.342;2022-08-19T09:02:34;100171.13;;;26.02;33.23
67803;BME280;54601;51.378;-1.342;2022-08-19T09:05:00;100171.76;;;26.03;33.18
67803;BME280;54601;51.378;-1.342;2022-08-19T09:07:43;100173.88;;;26.05;33.11
67803;BME280;54601;51.378;-1.342;2022-08-19T09:09:52;100172.65;;;26.03;33.13
67803;BME280;54601;51.378;-1.342;2022-08-19T09:12:21;100176.18;;;26.05;33.10
67803;BME280;54601;51.378;-1.342;2022-08-19T09:14:48;100180.33;;;26.05;33.14
67803;BME280;54601;51.378;-1.342;2022-08-19T09:17:08;100179.33;;;26.08;33.14
67803;BME280;54601;51.378;-1.342;2022-08-19T09:19:33;100178.41;;;26.08;33.09
67803;BME280;54601;51.378;-1.342;2022-08-19T09:21:58;100184.08;;;26.07;33.09
67803;BME280;54601;51.378;-1.342;2022-08-19T09:24:24;100183.42;;;25.82;33.00
67803;BME280;54601;51.378;-1.342;2022-08-19T09:26:49;100184.32;;;26.13;32.92
67803;BME280;54601;51.378;-1.342;2022-08-19T09:29:15;100193.22;;;26.08;32.89
67803;BME280;54601;51.378;-1.342;2022-08-19T09:31:41;100189.56;;;26.31;32.92
67803;BME280;54601;51.378;-1.342;2022-08-19T09:34:06;100189.88;;;25.86;32.80
67803;BME280;54601;51.378;-1.342;2022-08-19T09:36:32;100188.54;;;26.32;32.84
67803;BME280;54601;51.378;-1.342;2022-08-19T09:38:57;100192.15;;;26.12;32.77
67803;BME280;54601;51.378;-1.342;2022-08-19T09:41:24;100192.33;;;26.12;32.74
67803;BME280;54601;51.378;-1.342;2022-08-19T09:43:51;100189.18;;;25.96;32.50
67803;BME280;54601;51.378;-1.342;2022-08-19T09:46:15;100188.55;;;26.18;32.54
67803;BME280;54601;51.378;-1.342;2022-08-19T09:48:40;100193.61;;;26.16;32.58
67803;BME280;54601;51.378;-1.342;2022-08-19T09:51:08;100191.83;;;26.10;32.61
67803;BME280;54601;51.378;-1.342;2022-08-19T09:53:31;100192.93;;;26.18;32.55
67803;BME280;54601;51.378;-1.342;2022-08-19T09:55:56;100195.27;;;26.13;32.52
67803;BME280;54601;51.378;-1.342;2022-08-19T09:58:22;100196.38;;;26.10;32.39
67803;BME280;54601;51.378;-1.342;2022-08-19T10:00:48;100197.02;;;26.28;32.08
67803;BME280;54601;51.378;-1.342;2022-08-19T10:03:13;100194.98;;;26.27;32.13
67803;BME280;54601;51.378;-1.342;2022-08-19T10:05:39;100198.06;;;26.29;32.08
67803;BME280;54601;51.378;-1.342;2022-08-19T10:08:04;100200.93;;;26.06;32.09
67803;BME280;54601;51.378;-1.342;2022-08-19T10:10:35;100197.32;;;26.26;32.03
67803;BME280;54601;51.378;-1.342;2022-08-19T10:12:55;100188.40;;;26.43;32.10
67803;BME280;54601;51.378;-1.342;2022-08-19T10:15:21;100192.51;;;26.20;32.07
67803;BME280;54601;51.378;-1.342;2022-08-19T10:17:47;100195.74;;;26.26;32.01
67803;BME280;54601;51.378;-1.342;2022-08-19T10:20:12;100202.04;;;26.26;31.95
67803;BME280;54601;51.378;-1.342;2022-08-19T10:22:38;100204.43;;;26.27;31.95
67803;BME280;54601;51.378;-1.342;2022-08-19T10:25:05;100203.28;;;26.00;31.93
67803;BME280;54601;51.378;-1.342;2022-08-19T10:27:29;100205.35;;;26.38;31.84
67803;BME280;54601;51.378;-1.342;2022-08-19T10:29:54;100201.77;;;26.07;31.81
67803;BME280;54601;51.378;-1.342;2022-08-19T10:32:20;100211.54;;;26.38;31.60
67803;BME280;54601;51.378;-1.342;2022-08-19T10:34:46;100211.48;;;26.33;31.65
67803;BME280;54601;51.378;-1.342;2022-08-19T10:37:11;100206.03;;;26.37;31.56
67803;BME280;54601;51.378;-1.342;2022-08-19T10:39:37;100209.40;;;26.33;31.58
67803;BME280;54601;51.378;-1.342;2022-08-19T10:42:05;100208.79;;;26.34;31.44
67803;BME280;54601;51.378;-1.342;2022-08-19T10:44:28;100213.05;;;26.36;31.32
67803;BME280;54601;51.378;-1.342;2022-08-19T10:46:53;100212.18;;;26.34;31.24
67803;BME280;54601;51.378;-1.342;2022-08-19T10:49:19;100211.60;;;26.40;31.14
67803;BME280;54601;51.378;-1.342;2022-08-19T10:51:45;100218.29;;;26.39;31.14
67803;BME280;54601;51.378;-1.342;2022-08-19T10:54:10;100211.65;;;26.36;31.09
67803;BME280;54601;51.378;-1.342;2022-08-19T10:56:36;100212.82;;;26.09;31.03
67803;BME280;54601;51.378;-1.342;2022-08-19T10:59:01;100208.75;;;26.40;30.99
67803;BME280;54601;51.378;-1.342;2022-08-19T11:01:27;100211.96;;;26.43;30.85
67803;BME280;54601;51.378;-1.342;2022-08-19T11:03:52;100210.34;;;26.42;30.86
67803;BME280;54601;51.378;-1.342;2022-08-19T11:06:18;100210.62;;;26.46;30.79
67803;BME280;54601;51.378;-1.342;2022-08-19T11:08:43;100212.81;;;26.47;30.62
67803;BME280;54601;51.378;-1.342;2022-08-19T11:11:08;100215.63;;;26.44;30.64
67803;BME280;54601;51.378;-1.342;2022-08-19T11:13:36;100218.77;;;26.41;30.61
67803;BME280;54601;51.378;-1.342;2022-08-19T11:16:01;100221.74;;;26.22;30.54
67803;BME280;54601;51.378;-1.342;2022-08-19T11:18:25;100218.91;;;26.51;30.56
67803;BME280;54601;51.378;-1.342;2022-08-19T11:20:51;100214.56;;;26.48;30.63
67803;BME280;54601;51.378;-1.342;2022-08-19T11:23:16;100209.19;;;26.46;30.48
67803;BME280;54601;51.378;-1.342;2022-08-19T11:25:41;100212.35;;;26.48;30.30
67803;BME280;54601;51.378;-1.342;2022-08-19T11:28:07;100211.61;;;26.24;30.34
67803;BME280;54601;51.378;-1.342;2022-08-19T11:30:32;100206.27;;;26.49;30.19
67803;BME280;54601;51.378;-1.342;2022-08-19T11:32:58;100209.52;;;26.45;30.26
67803;BME280;54601;51.378;-1.342;2022-08-19T11:35:23;100203.55;;;26.45;30.25
67803;BME280;54601;51.378;-1.342;2022-08-19T11:37:49;100194.90;;;26.23;30.06
67803;BME280;54601;51.378;-1.342;2022-08-19T11:40:15;100202.39;;;26.22;30.04
67803;BME280;54601;51.378;-1.342;2022-08-19T11:42:40;100209.69;;;26.49;30.09
67803;BME280;54601;51.378;-1.342;2022-08-19T11:45:07;100211.44;;;26.45;30.18
67803;BME280;54601;51.378;-1.342;2022-08-19T11:47:31;100210.23;;;26.41;30.16
67803;BME280;54601;51.378;-1.342;2022-08-19T11:49:56;100209.41;;;26.44;29.95
67803;BME280;54601;51.378;-1.342;2022-08-19T11:52:22;100206.06;;;26.41;30.06
67803;BME280;54601;51.378;-1.342;2022-08-19T11:54:48;100208.08;;;26.44;29.86
67803;BME280;54601;51.378;-1.342;2022-08-19T11:57:13;100205.27;;;26.45;29.97
67803;BME280;54601;51.378;-1.342;2022-08-19T11:59:39;100207.97;;;26.40;29.92
67803;BME280;54601;51.378;-1.342;2022-08-19T12:02:04;100210.04;;;26.39;30.09
67803;BME280;54601;51.378;-1.342;2022-08-19T12:04:30;100205.43;;;26.41;30.00
67803;BME280;54601;51.378;-1.342;2022-08-19T12:06:55;100199.42;;;26.37;29.99
67803;BME280;54601;51.378;-1.342;2022-08-19T12:09:21;100208.78;;;26.36;30.03
67803;BME280;54601;51.378;-1.342;2022-08-19T12:11:46;100204.42;;;26.37;29.96
67803;BME280;54601;51.378;-1.342;2022-08-19T12:14:13;100212.43;;;26.39;29.72
67803;BME280;54601;51.378;-1.342;2022-08-19T12:16:37;100212.63;;;26.35;29.83
67803;BME280;54601;51.378;-1.342;2022-08-19T12:19:04;100205.80;;;26.35;29.80
67803;BME280;54601;51.378;-1.342;2022-08-19T12:21:29;100203.76;;;26.32;29.78
67803;BME280;54601;51.378;-1.342;2022-08-19T12:23:56;100202.53;;;26.35;29.68
67803;BME280;54601;51.378;-1.342;2022-08-19T12:26:20;100211.36;;;26.38;29.69
67803;BME280;54601;51.378;-1.342;2022-08-19T12:28:45;100204.45;;;26.35;29.72
67803;BME280;54601;51.378;-1.342;2022-08-19T12:31:11;100204.18;;;26.36;29.71
67803;BME280;54601;51.378;-1.342;2022-08-19T12:33:36;100205.80;;;26.28;29.89